CheckWX is a tool to help pilots better visualize weather data.  It is not intended as a substitute for an official pre-flight weather briefing.

15:31:23 UTC

KBBG TAF
Branson Airport
Branson, Missouri, USA
KBBG 191120Z 1912/2012 30010KT P6SM SKC FM192200 VRB03KT P6SM SKC FM200600 14006KT P6SM SKC

Nov-19@
12:00 UTC

Nov-19 @ 12:00 UTC

Nov-19@
22:00 UTC

Nov-19 @ 22:00 UTC

KBBG 191120Z 1912/2012 30010KT P6SM SKC
Wind
  • 300° at 10 KTS
Cloud Levels
  • Clear skies

Nov-19@
22:00 UTC

Nov-19 @ 22:00 UTC

Nov-20@
06:00 UTC

Nov-20 @ 06:00 UTC

FM192200 VRB03KT P6SM SKC

From

From Standard forecast or significant change

Wind
  • Variable at 3 KTS
Cloud Levels
  • Clear skies

Nov-20@
06:00 UTC

Nov-20 @ 06:00 UTC

Nov-20@
12:00 UTC

Nov-20 @ 12:00 UTC

FM200600 14006KT P6SM SKC

From

From Standard forecast or significant change

Wind
  • 140° at 6 KTS
Cloud Levels
  • Clear skies